sensor_id;sensor_type;location;lat;lon;timestamp;pressure;altitude;pressure_sealevel;temperature;humidity
35716;BME280;21840;44.920;8.616;2023-07-29T00:00:55;100139.16;;;29.55;46.36
35716;BME280;21840;44.920;8.616;2023-07-29T00:03:21;100136.88;;;29.16;47.18
35716;BME280;21840;44.920;8.616;2023-07-29T00:05:47;100125.06;;;29.48;46.44
35716;BME280;21840;44.920;8.616;2023-07-29T00:08:16;100123.16;;;29.43;46.98
35716;BME280;21840;44.920;8.616;2023-07-29T00:10:41;100126.19;;;29.62;46.14
35716;BME280;21840;44.920;8.616;2023-07-29T00:13:07;100124.84;;;29.64;46.44
35716;BME280;21840;44.920;8.616;2023-07-29T00:15:32;100121.09;;;29.65;45.97
35716;BME280;21840;44.920;8.616;2023-07-29T00:17:58;100131.03;;;29.50;46.87
35716;BME280;21840;44.920;8.616;2023-07-29T00:20:26;100117.47;;;29.39;47.06
35716;BME280;21840;44.920;8.616;2023-07-29T00:22:52;100112.09;;;29.60;46.13
35716;BME280;21840;44.920;8.616;2023-07-29T00:25:21;100102.94;;;29.61;45.87
35716;BME280;21840;44.920;8.616;2023-07-29T00:27:46;100101.00;;;29.51;46.51
35716;BME280;21840;44.920;8.616;2023-07-29T00:30:13;100100.72;;;29.58;46.18
35716;BME280;21840;44.920;8.616;2023-07-29T00:32:38;100098.53;;;29.39;47.05
35716;BME280;21840;44.920;8.616;2023-07-29T00:35:05;100099.91;;;29.42;46.90
35716;BME280;21840;44.920;8.616;2023-07-29T00:37:30;100091.53;;;29.43;46.61
35716;BME280;21840;44.920;8.616;2023-07-29T00:39:56;100104.19;;;29.33;47.00
35716;BME280;21840;44.920;8.616;2023-07-29T00:42:22;100103.66;;;29.31;47.05
35716;BME280;21840;44.920;8.616;2023-07-29T00:44:48;100105.13;;;29.01;47.72
35716;BME280;21840;44.920;8.616;2023-07-29T00:47:15;100120.34;;;29.12;47.64
35716;BME280;21840;44.920;8.616;2023-07-29T00:49:41;100124.38;;;29.10;47.41
35716;BME280;21840;44.920;8.616;2023-07-29T00:52:07;100123.31;;;29.11;47.55
35716;BME280;21840;44.920;8.616;2023-07-29T00:54:33;100117.53;;;28.97;47.81
35716;BME280;21840;44.920;8.616;2023-07-29T00:56:58;100118.19;;;29.14;47.50
35716;BME280;21840;44.920;8.616;2023-07-29T00:59:25;100113.91;;;29.18;46.79
35716;BME280;21840;44.920;8.616;2023-07-29T01:01:53;100127.44;;;29.23;47.01
35716;BME280;21840;44.920;8.616;2023-07-29T01:04:18;100126.59;;;29.23;46.69
35716;BME280;21840;44.920;8.616;2023-07-29T01:07:07;100120.97;;;29.40;46.12
35716;BME280;21840;44.920;8.616;2023-07-29T01:12:20;100126.38;;;29.35;46.37
35716;BME280;21840;44.920;8.616;2023-07-29T01:17:33;100136.16;;;29.41;46.05
35716;BME280;21840;44.920;8.616;2023-07-29T01:20:06;100132.06;;;29.33;46.12
35716;BME280;21840;44.920;8.616;2023-07-29T01:22:36;100125.38;;;29.56;45.60
35716;BME280;21840;44.920;8.616;2023-07-29T01:25:03;100129.41;;;29.49;46.10
35716;BME280;21840;44.920;8.616;2023-07-29T01:27:29;100123.47;;;29.57;45.66
35716;BME280;21840;44.920;8.616;2023-07-29T01:29:56;100130.59;;;29.68;45.46
35716;BME280;21840;44.920;8.616;2023-07-29T01:34:59;100134.34;;;29.67;45.77
35716;BME280;21840;44.920;8.616;2023-07-29T01:37:27;100132.22;;;29.74;45.28
35716;BME280;21840;44.920;8.616;2023-07-29T01:39:57;100128.34;;;29.65;45.80
35716;BME280;21840;44.920;8.616;2023-07-29T01:42:24;100131.06;;;29.60;46.37
35716;BME280;21840;44.920;8.616;2023-07-29T01:44:50;100134.56;;;29.55;46.77
35716;BME280;21840;44.920;8.616;2023-07-29T01:47:16;100140.72;;;29.40;46.87
35716;BME280;21840;44.920;8.616;2023-07-29T01:49:42;100144.03;;;29.53;46.52
35716;BME280;21840;44.920;8.616;2023-07-29T01:52:07;100149.41;;;29.48;46.96
35716;BME280;21840;44.920;8.616;2023-07-29T01:54:33;100152.09;;;29.37;47.18
35716;BME280;21840;44.920;8.616;2023-07-29T01:56:59;100144.72;;;29.22;47.24
35716;BME280;21840;44.920;8.616;2023-07-29T01:59:24;100147.69;;;29.16;47.70
35716;BME280;21840;44.920;8.616;2023-07-29T02:01:50;100143.25;;;28.99;47.71
35716;BME280;21840;44.920;8.616;2023-07-29T02:04:15;100141.69;;;29.09;47.86
35716;BME280;21840;44.920;8.616;2023-07-29T02:06:40;100126.53;;;29.08;47.84
35716;BME280;21840;44.920;8.616;2023-07-29T02:09:06;100124.88;;;29.01;47.76
35716;BME280;21840;44.920;8.616;2023-07-29T02:11:32;100112.75;;;29.09;47.79
35716;BME280;21840;44.920;8.616;2023-07-29T02:13:57;100111.97;;;29.09;47.42
35716;BME280;21840;44.920;8.616;2023-07-29T02:16:23;100117.91;;;29.11;47.68
35716;BME280;21840;44.920;8.616;2023-07-29T02:18:49;100117.25;;;28.93;48.36
35716;BME280;21840;44.920;8.616;2023-07-29T02:21:19;100132.69;;;29.03;47.89
35716;BME280;21840;44.920;8.616;2023-07-29T02:23:44;100127.81;;;29.00;48.50
35716;BME280;21840;44.920;8.616;2023-07-29T02:26:10;100118.94;;;29.04;48.37
35716;BME280;21840;44.920;8.616;2023-07-29T02:28:36;100124.91;;;29.07;48.11
35716;BME280;21840;44.920;8.616;2023-07-29T02:31:16;100131.09;;;29.02;48.20
35716;BME280;21840;44.920;8.616;2023-07-29T02:33:43;100131.25;;;28.85;48.21
35716;BME280;21840;44.920;8.616;2023-07-29T02:36:08;100130.19;;;28.86;48.25
35716;BME280;21840;44.920;8.616;2023-07-29T02:38:34;100123.66;;;28.77;48.29
35716;BME280;21840;44.920;8.616;2023-07-29T02:41:00;100120.69;;;28.41;48.83
35716;BME280;21840;44.920;8.616;2023-07-29T02:43:25;100128.97;;;28.62;48.29
35716;BME280;21840;44.920;8.616;2023-07-29T02:45:51;100134.34;;;28.56;48.55
35716;BME280;21840;44.920;8.616;2023-07-29T02:48:16;100144.03;;;28.52;48.71
35716;BME280;21840;44.920;8.616;2023-07-29T02:50:42;100151.84;;;28.49;48.80
35716;BME280;21840;44.920;8.616;2023-07-29T02:53:07;100139.75;;;28.56;48.74
35716;BME280;21840;44.920;8.616;2023-07-29T02:55:33;100137.06;;;28.62;48.50
35716;BME280;21840;44.920;8.616;2023-07-29T02:57:58;100139.59;;;28.73;48.28
35716;BME280;21840;44.920;8.616;2023-07-29T03:00:24;100129.03;;;28.72;48.25
35716;BME280;21840;44.920;8.616;2023-07-29T03:02:50;100130.13;;;28.71;48.38
35716;BME280;21840;44.920;8.616;2023-07-29T03:05:16;100126.22;;;28.56;48.50
35716;BME280;21840;44.920;8.616;2023-07-29T03:07:42;100120.84;;;28.62;48.13
35716;BME280;21840;44.920;8.616;2023-07-29T03:10:07;100098.16;;;28.63;48.25
35716;BME280;21840;44.920;8.616;2023-07-29T03:12:36;100093.47;;;28.48;48.67
35716;BME280;21840;44.920;8.616;2023-07-29T03:15:01;100089.47;;;28.55;48.69
35716;BME280;21840;44.920;8.616;2023-07-29T03:17:27;100091.47;;;28.38;49.27
35716;BME280;21840;44.920;8.616;2023-07-29T03:19:53;100098.56;;;28.44;48.76
35716;BME280;21840;44.920;8.616;2023-07-29T03:22:18;100101.38;;;28.59;48.38
35716;BME280;21840;44.920;8.616;2023-07-29T03:24:46;100114.44;;;28.40;48.73
35716;BME280;21840;44.920;8.616;2023-07-29T03:27:12;100115.06;;;28.48;48.56
35716;BME280;21840;44.920;8.616;2023-07-29T03:29:38;100111.09;;;28.60;48.65
35716;BME280;21840;44.920;8.616;2023-07-29T03:32:04;100116.66;;;28.44;48.99
35716;BME280;21840;44.920;8.616;2023-07-29T03:34:29;100125.44;;;28.61;48.64
35716;BME280;21840;44.920;8.616;2023-07-29T03:36:55;100138.09;;;28.55;48.85
35716;BME280;21840;44.920;8.616;2023-07-29T03:39:21;100139.41;;;28.53;49.30
35716;BME280;21840;44.920;8.616;2023-07-29T03:41:46;100138.09;;;28.55;49.18
35716;BME280;21840;44.920;8.616;2023-07-29T03:44:14;100136.06;;;28.40;49.01
35716;BME280;21840;44.920;8.616;2023-07-29T03:46:40;100148.03;;;28.45;48.56
35716;BME280;21840;44.920;8.616;2023-07-29T03:49:07;100141.06;;;28.22;49.11
35716;BME280;21840;44.920;8.616;2023-07-29T03:51:32;100143.84;;;28.32;49.06
35716;BME280;21840;44.920;8.616;2023-07-29T03:53:58;100141.28;;;28.47;48.59
35716;BME280;21840;44.920;8.616;2023-07-29T03:56:23;100140.00;;;28.28;48.89
35716;BME280;21840;44.920;8.616;2023-07-29T03:58:49;100146.56;;;28.37;49.05
35716;BME280;21840;44.920;8.616;2023-07-29T04:01:14;100149.66;;;28.46;48.56
35716;BME280;21840;44.920;8.616;2023-07-29T04:03:40;100139.28;;;28.05;49.74
35716;BME280;21840;44.920;8.616;2023-07-29T04:06:06;100140.84;;;28.28;48.96
35716;BME280;21840;44.920;8.616;2023-07-29T04:08:32;100147.25;;;28.22;48.95
35716;BME280;21840;44.920;8.616;2023-07-29T04:10:58;100151.81;;;28.16;49.27
35716;BME280;21840;44.920;8.616;2023-07-29T04:13:24;100153.13;;;28.14;49.36
35716;BME280;21840;44.920;8.616;2023-07-29T04:15:49;100154.22;;;27.86;50.04
35716;BME280;21840;44.920;8.616;2023-07-29T04:18:14;100166.53;;;28.04;49.91
35716;BME280;21840;44.920;8.616;2023-07-29T04:20:41;100165.75;;;28.03;49.53
35716;BME280;21840;44.920;8.616;2023-07-29T04:23:07;100177.50;;;27.92;50.15
35716;BME280;21840;44.920;8.616;2023-07-29T04:25:32;100169.34;;;27.87;50.08
35716;BME280;21840;44.920;8.616;2023-07-29T04:27:58;100164.03;;;27.97;49.75
35716;BME280;21840;44.920;8.616;2023-07-29T04:30:23;100169.50;;;28.02;49.78
35716;BME280;21840;44.920;8.616;2023-07-29T04:32:49;100167.41;;;28.09;49.66
35716;BME280;21840;44.920;8.616;2023-07-29T04:35:15;100173.38;;;28.11;49.69
35716;BME280;21840;44.920;8.616;2023-07-29T04:37:40;100167.97;;;28.11;49.70
35716;BME280;21840;44.920;8.616;2023-07-29T04:40:06;100181.16;;;28.40;49.13
35716;BME280;21840;44.920;8.616;2023-07-29T04:42:32;100178.47;;;28.40;49.33
35716;BME280;21840;44.920;8.616;2023-07-29T04:44:58;100183.38;;;28.43;49.09
35716;BME280;21840;44.920;8.616;2023-07-29T04:47:23;100182.41;;;28.54;48.86
35716;BME280;21840;44.920;8.616;2023-07-29T04:49:48;100171.94;;;28.63;49.04
35716;BME280;21840;44.920;8.616;2023-07-29T04:52:14;100158.34;;;28.53;49.36
35716;BME280;21840;44.920;8.616;2023-07-29T04:54:40;100169.59;;;28.77;48.50
35716;BME280;21840;44.920;8.616;2023-07-29T04:57:06;100176.78;;;28.61;48.41
35716;BME280;21840;44.920;8.616;2023-07-29T04:59:32;100176.06;;;28.71;48.58
35716;BME280;21840;44.920;8.616;2023-07-29T05:01:57;100169.69;;;28.92;48.01
35716;BME280;21840;44.920;8.616;2023-07-29T05:04:23;100171.44;;;29.09;47.76
35716;BME280;21840;44.920;8.616;2023-07-29T05:06:48;100170.28;;;29.04;47.45
35716;BME280;21840;44.920;8.616;2023-07-29T05:09:15;100166.34;;;29.22;47.09
35716;BME280;21840;44.920;8.616;2023-07-29T05:11:42;100169.38;;;29.26;47.08
35716;BME280;21840;44.920;8.616;2023-07-29T05:14:11;100167.16;;;29.18;47.03
35716;BME280;21840;44.920;8.616;2023-07-29T05:16:36;100170.22;;;28.89;47.42
35716;BME280;21840;44.920;8.616;2023-07-29T05:19:03;100169.59;;;29.19;47.12
35716;BME280;21840;44.920;8.616;2023-07-29T05:21:29;100175.91;;;29.40;46.21
35716;BME280;21840;44.920;8.616;2023-07-29T05:23:57;100176.72;;;28.88;46.83
35716;BME280;21840;44.920;8.616;2023-07-29T05:26:24;100186.63;;;29.20;46.17
35716;BME280;21840;44.920;8.616;2023-07-29T05:28:49;100176.16;;;29.34;46.12
35716;BME280;21840;44.920;8.616;2023-07-29T05:31:14;100185.69;;;29.52;45.64
35716;BME280;21840;44.920;8.616;2023-07-29T05:33:40;100191.34;;;29.45;45.52
35716;BME280;21840;44.920;8.616;2023-07-29T05:36:06;100181.09;;;29.57;45.41
35716;BME280;21840;44.920;8.616;2023-07-29T05:38:32;100179.75;;;29.55;45.54
35716;BME280;21840;44.920;8.616;2023-07-29T05:40:57;100187.41;;;29.68;45.36
35716;BME280;21840;44.920;8.616;2023-07-29T05:43:26;100189.06;;;29.79;44.49
35716;BME280;21840;44.920;8.616;2023-07-29T05:45:52;100194.31;;;29.38;45.58
35716;BME280;21840;44.920;8.616;2023-07-29T05:48:19;100188.03;;;29.28;45.34
35716;BME280;21840;44.920;8.616;2023-07-29T05:50:45;100197.06;;;29.54;44.93
35716;BME280;21840;44.920;8.616;2023-07-29T05:53:10;100204.22;;;29.80;44.36
35716;BME280;21840;44.920;8.616;2023-07-29T05:55:36;100199.69;;;30.06;43.99
35716;BME280;21840;44.920;8.616;2023-07-29T05:58:01;100201.03;;;30.04;43.63
35716;BME280;21840;44.920;8.616;2023-07-29T06:00:27;100203.22;;;30.22;43.12
35716;BME280;21840;44.920;8.616;2023-07-29T06:02:52;100202.66;;;30.05;43.35
35716;BME280;21840;44.920;8.616;2023-07-29T06:05:20;100215.13;;;30.16;43.10
35716;BME280;21840;44.920;8.616;2023-07-29T06:07:46;100202.63;;;30.00;43.02
35716;BME280;21840;44.920;8.616;2023-07-29T06:10:14;100208.38;;;30.19;43.23
35716;BME280;21840;44.920;8.616;2023-07-29T06:12:43;100210.31;;;30.44;42.81
35716;BME280;21840;44.920;8.616;2023-07-29T06:15:09;100210.16;;;29.72;43.92
35716;BME280;21840;44.920;8.616;2023-07-29T06:17:34;100214.63;;;29.46;44.51
35716;BME280;21840;44.920;8.616;2023-07-29T06:20:00;100213.41;;;29.79;43.74
35716;BME280;21840;44.920;8.616;2023-07-29T06:22:25;100221.16;;;30.28;42.85
35716;BME280;21840;44.920;8.616;2023-07-29T06:24:51;100216.13;;;29.79;43.53
35716;BME280;21840;44.920;8.616;2023-07-29T06:27:16;100207.34;;;29.52;43.66
35716;BME280;21840;44.920;8.616;2023-07-29T06:29:42;100200.44;;;29.76;43.84
35716;BME280;21840;44.920;8.616;2023-07-29T06:32:07;100204.00;;;30.02;42.98
35716;BME280;21840;44.920;8.616;2023-07-29T06:34:33;100212.47;;;30.52;42.27
35716;BME280;21840;44.920;8.616;2023-07-29T06:36:58;100215.09;;;29.85;43.47
35716;BME280;21840;44.920;8.616;2023-07-29T06:39:23;100205.66;;;30.24;42.91
35716;BME280;21840;44.920;8.616;2023-07-29T06:41:49;100209.22;;;30.29;42.60
35716;BME280;21840;44.920;8.616;2023-07-29T06:44:17;100211.41;;;30.53;42.10
35716;BME280;21840;44.920;8.616;2023-07-29T06:46:42;100207.06;;;30.83;41.56
35716;BME280;21840;44.920;8.616;2023-07-29T06:49:08;100211.66;;;30.62;41.70
35716;BME280;21840;44.920;8.616;2023-07-29T06:51:33;100214.91;;;30.79;41.34
35716;BME280;21840;44.920;8.616;2023-07-29T06:54:01;100217.31;;;31.16;40.62
35716;BME280;21840;44.920;8.616;2023-07-29T06:56:26;100236.59;;;31.00;40.70
35716;BME280;21840;44.920;8.616;2023-07-29T06:58:52;100236.56;;;31.25;40.48
35716;BME280;21840;44.920;8.616;2023-07-29T07:01:18;100237.38;;;31.21;40.20
35716;BME280;21840;44.920;8.616;2023-07-29T07:03:43;100233.59;;;31.16;40.06
35716;BME280;21840;44.920;8.616;2023-07-29T07:06:08;100223.78;;;31.41;39.69
35716;BME280;21840;44.920;8.616;2023-07-29T07:08:34;100217.19;;;31.52;39.21
35716;BME280;21840;44.920;8.616;2023-07-29T07:10:59;100211.97;;;31.71;39.03
35716;BME280;21840;44.920;8.616;2023-07-29T07:13:25;100214.34;;;31.83;38.74
35716;BME280;21840;44.920;8.616;2023-07-29T07:15:50;100220.31;;;31.80;38.83
35716;BME280;21840;44.920;8.616;2023-07-29T07:18:16;100219.09;;;31.52;39.44
35716;BME280;21840;44.920;8.616;2023-07-29T07:20:41;100220.00;;;31.92;38.61
35716;BME280;21840;44.920;8.616;2023-07-29T07:23:07;100226.47;;;31.36;39.82
35716;BME280;21840;44.920;8.616;2023-07-29T07:25:36;100217.78;;;31.44;39.54
35716;BME280;21840;44.920;8.616;2023-07-29T07:28:02;100219.00;;;31.72;39.40
35716;BME280;21840;44.920;8.616;2023-07-29T07:30:27;100222.44;;;31.98;38.72
35716;BME280;21840;44.920;8.616;2023-07-29T07:32:53;100223.06;;;31.75;39.21
35716;BME280;21840;44.920;8.616;2023-07-29T07:35:18;100220.81;;;31.97;38.81
35716;BME280;21840;44.920;8.616;2023-07-29T07:37:44;100215.47;;;31.77;38.98
35716;BME280;21840;44.920;8.616;2023-07-29T07:40:10;100216.25;;;31.83;39.17
35716;BME280;21840;44.920;8.616;2023-07-29T07:42:35;100214.75;;;32.11;38.64
35716;BME280;21840;44.920;8.616;2023-07-29T07:45:04;100206.66;;;32.40;38.24
35716;BME280;21840;44.920;8.616;2023-07-29T07:47:29;100208.56;;;32.39;38.17
35716;BME280;21840;44.920;8.616;2023-07-29T07:49:55;100215.09;;;32.38;37.98
35716;BME280;21840;44.920;8.616;2023-07-29T07:52:20;100211.19;;;32.15;38.21
35716;BME280;21840;44.920;8.616;2023-07-29T07:54:51;100213.00;;;32.30;38.11
35716;BME280;21840;44.920;8.616;2023-07-29T07:57:17;100221.84;;;32.07;38.83
35716;BME280;21840;44.920;8.616;2023-07-29T07:59:43;100224.59;;;32.41;38.21
35716;BME280;21840;44.920;8.616;2023-07-29T08:02:08;100216.91;;;32.53;37.97
35716;BME280;21840;44.920;8.616;2023-07-29T08:04:33;100206.75;;;32.64;37.45
35716;BME280;21840;44.920;8.616;2023-07-29T08:06:59;100211.06;;;32.70;37.60
35716;BME280;21840;44.920;8.616;2023-07-29T08:09:24;100207.72;;;32.78;37.22
35716;BME280;21840;44.920;8.616;2023-07-29T08:11:50;100211.03;;;32.75;37.40
35716;BME280;21840;44.920;8.616;2023-07-29T08:14:15;100204.66;;;32.56;37.95
35716;BME280;21840;44.920;8.616;2023-07-29T08:16:41;100203.06;;;32.50;38.24
35716;BME280;21840;44.920;8.616;2023-07-29T08:19:06;100213.00;;;32.25;38.53
35716;BME280;21840;44.920;8.616;2023-07-29T08:21:34;100202.75;;;32.85;37.72
35716;BME280;21840;44.920;8.616;2023-07-29T08:24:00;100204.63;;;32.90;37.27
35716;BME280;21840;44.920;8.616;2023-07-29T08:26:25;100203.84;;;33.14;37.05
35716;BME280;21840;44.920;8.616;2023-07-29T08:28:51;100201.19;;;33.08;36.76
35716;BME280;21840;44.920;8.616;2023-07-29T08:31:16;100199.31;;;33.04;36.88
35716;BME280;21840;44.920;8.616;2023-07-29T08:33:42;100198.34;;;33.19;36.53
35716;BME280;21840;44.920;8.616;2023-07-29T08:36:07;100197.88;;;33.36;36.20
35716;BME280;21840;44.920;8.616;2023-07-29T08:38:32;100194.00;;;32.88;36.76
35716;BME280;21840;44.920;8.616;2023-07-29T08:43:31;100198.88;;;33.40;36.05
35716;BME280;21840;44.920;8.616;2023-07-29T08:45:58;100202.00;;;33.33;36.22
35716;BME280;21840;44.920;8.616;2023-07-29T08:48:36;100197.28;;;33.63;35.91
35716;BME280;21840;44.920;8.616;2023-07-29T08:51:05;100195.16;;;33.79;35.47
35716;BME280;21840;44.920;8.616;2023-07-29T08:53:31;100189.88;;;33.87;35.39
35716;BME280;21840;44.920;8.616;2023-07-29T08:55:57;100186.56;;;33.90;35.17
35716;BME280;21840;44.920;8.616;2023-07-29T08:58:23;100194.34;;;34.35;34.32
35716;BME280;21840;44.920;8.616;2023-07-29T09:00:50;100206.66;;;34.32;34.46
35716;BME280;21840;44.920;8.616;2023-07-29T09:03:15;100202.38;;;33.88;35.30
35716;BME280;21840;44.920;8.616;2023-07-29T09:05:41;100206.69;;;34.46;34.32
35716;BME280;21840;44.920;8.616;2023-07-29T09:08:06;100202.13;;;34.42;34.40
35716;BME280;21840;44.920;8.616;2023-07-29T09:10:36;100197.81;;;34.54;34.22
35716;BME280;21840;44.920;8.616;2023-07-29T09:13:06;100205.88;;;34.78;33.77
35716;BME280;21840;44.920;8.616;2023-07-29T09:15:34;100202.03;;;34.47;34.19
35716;BME280;21840;44.920;8.616;2023-07-29T09:18:15;100194.78;;;34.75;33.98
35716;BME280;21840;44.920;8.616;2023-07-29T09:20:40;100195.47;;;34.94;33.49
35716;BME280;21840;44.920;8.616;2023-07-29T09:23:10;100180.38;;;35.16;32.96
35716;BME280;21840;44.920;8.616;2023-07-29T09:25:37;100176.22;;;35.18;32.90
35716;BME280;21840;44.920;8.616;2023-07-29T09:28:09;100173.16;;;35.48;32.36
35716;BME280;21840;44.920;8.616;2023-07-29T09:30:35;100173.28;;;35.42;32.70
35716;BME280;21840;44.920;8.616;2023-07-29T09:33:00;100168.81;;;35.05;33.64
35716;BME280;21840;44.920;8.616;2023-07-29T09:35:28;100161.44;;;35.06;33.64
35716;BME280;21840;44.920;8.616;2023-07-29T09:37:53;100167.72;;;35.20;33.37
35716;BME280;21840;44.920;8.616;2023-07-29T09:40:19;100163.78;;;35.26;32.93
35716;BME280;21840;44.920;8.616;2023-07-29T09:42:49;100159.31;;;34.75;33.73
35716;BME280;21840;44.920;8.616;2023-07-29T09:45:22;100154.34;;;34.91;33.51
35716;BME280;21840;44.920;8.616;2023-07-29T09:47:48;100158.09;;;34.95;33.79
35716;BME280;21840;44.920;8.616;2023-07-29T09:50:14;100158.41;;;35.21;32.87
35716;BME280;21840;44.920;8.616;2023-07-29T09:52:41;100141.31;;;35.29;33.00
35716;BME280;21840;44.920;8.616;2023-07-29T09:55:07;100150.47;;;35.47;32.42
35716;BME280;21840;44.920;8.616;2023-07-29T09:57:33;100152.03;;;35.12;33.04
35716;BME280;21840;44.920;8.616;2023-07-29T09:59:59;100151.84;;;35.22;33.53
35716;BME280;21840;44.920;8.616;2023-07-29T10:02:24;100136.03;;;35.47;32.91
35716;BME280;21840;44.920;8.616;2023-07-29T10:04:54;100149.44;;;35.71;32.63
35716;BME280;21840;44.920;8.616;2023-07-29T10:07:21;100151.75;;;35.77;32.48
35716;BME280;21840;44.920;8.616;2023-07-29T10:09:47;100151.06;;;36.08;31.78
35716;BME280;21840;44.920;8.616;2023-07-29T10:12:15;100142.63;;;36.27;31.37
35716;BME280;21840;44.920;8.616;2023-07-29T10:14:43;100147.75;;;36.74;30.96
35716;BME280;21840;44.920;8.616;2023-07-29T10:17:10;100143.47;;;36.99;30.39
35716;BME280;21840;44.920;8.616;2023-07-29T10:19:36;100148.72;;;36.46;31.06
35716;BME280;21840;44.920;8.616;2023-07-29T10:22:03;100144.88;;;36.79;30.57
35716;BME280;21840;44.920;8.616;2023-07-29T10:24:32;100136.66;;;36.79;30.08
35716;BME280;21840;44.920;8.616;2023-07-29T10:27:00;100143.41;;;36.73;30.43
35716;BME280;21840;44.920;8.616;2023-07-29T10:29:30;100143.22;;;37.09;30.05
35716;BME280;21840;44.920;8.616;2023-07-29T10:31:58;100145.72;;;36.88;29.91
35716;BME280;21840;44.920;8.616;2023-07-29T10:34:26;100144.22;;;37.22;29.08
35716;BME280;21840;44.920;8.616;2023-07-29T10:36:53;100141.16;;;37.15;29.26
35716;BME280;21840;44.920;8.616;2023-07-29T10:39:18;100136.44;;;37.06;29.65
35716;BME280;21840;44.920;8.616;2023-07-29T10:42:13;100133.47;;;36.94;29.47
35716;BME280;21840;44.920;8.616;2023-07-29T10:49:54;100141.50;;;36.82;29.93
35716;BME280;21840;44.920;8.616;2023-07-29T10:52:30;100141.41;;;36.64;30.30
35716;BME280;21840;44.920;8.616;2023-07-29T10:54:55;100135.28;;;36.59;30.57
35716;BME280;21840;44.920;8.616;2023-07-29T10:57:35;100134.03;;;36.65;30.30
35716;BME280;21840;44.920;8.616;2023-07-29T11:00:02;100142.69;;;36.36;30.04
35716;BME280;21840;44.920;8.616;2023-07-29T11:02:33;100136.34;;;36.49;30.08
35716;BME280;21840;44.920;8.616;2023-07-29T11:05:18;100129.03;;;36.36;30.08
35716;BME280;21840;44.920;8.616;2023-07-29T11:07:48;100127.47;;;36.75;29.95
35716;BME280;21840;44.920;8.616;2023-07-29T11:10:14;100128.97;;;36.49;30.54
35716;BME280;21840;44.920;8.616;2023-07-29T11:18:11;100123.56;;;36.67;29.93
35716;BME280;21840;44.920;8.616;2023-07-29T11:20:32;100120.88;;;36.76;29.90
35716;BME280;21840;44.920;8.616;2023-07-29T11:22:59;100119.75;;;36.77;29.93
35716;BME280;21840;44.920;8.616;2023-07-29T11:25:27;100110.88;;;36.71;30.04
35716;BME280;21840;44.920;8.616;2023-07-29T11:27:54;100108.31;;;36.75;29.78
35716;BME280;21840;44.920;8.616;2023-07-29T11:30:20;100103.94;;;36.65;29.65
35716;BME280;21840;44.920;8.616;2023-07-29T11:32:46;100108.44;;;36.61;29.55
35716;BME280;21840;44.920;8.616;2023-07-29T11:35:16;100102.84;;;36.75;29.32
35716;BME280;21840;44.920;8.616;2023-07-29T11:37:45;100109.34;;;36.96;29.10
35716;BME280;21840;44.920;8.616;2023-07-29T11:40:19;100103.50;;;36.49;29.41
35716;BME280;21840;44.920;8.616;2023-07-29T11:42:46;100104.16;;;36.86;29.25
35716;BME280;21840;44.920;8.616;2023-07-29T11:45:12;100100.56;;;37.08;28.43
35716;BME280;21840;44.920;8.616;2023-07-29T11:47:38;100092.88;;;36.79;28.99
35716;BME280;21840;44.920;8.616;2023-07-29T11:50:05;100082.50;;;37.07;28.26
35716;BME280;21840;44.920;8.616;2023-07-29T11:52:33;100089.13;;;37.15;28.21
35716;BME280;21840;44.920;8.616;2023-07-29T11:55:00;100083.13;;;36.55;28.73
35716;BME280;21840;44.920;8.616;2023-07-29T11:57:27;100085.78;;;36.78;28.72
35716;BME280;21840;44.920;8.616;2023-07-29T11:59:52;100079.47;;;36.60;28.83
35716;BME280;21840;44.920;8.616;2023-07-29T12:02:19;100079.78;;;36.58;28.93
35716;BME280;21840;44.920;8.616;2023-07-29T12:04:47;100085.59;;;36.65;28.97
35716;BME280;21840;44.920;8.616;2023-07-29T12:07:14;100074.78;;;36.60;28.90
35716;BME280;21840;44.920;8.616;2023-07-29T12:09:40;100069.78;;;36.22;29.62
35716;BME280;21840;44.920;8.616;2023-07-29T12:12:07;100065.59;;;36.56;29.30
35716;BME280;21840;44.920;8.616;2023-07-29T12:14:33;100064.03;;;36.33;29.38
35716;BME280;21840;44.920;8.616;2023-07-29T12:17:00;100055.53;;;36.43;29.19
35716;BME280;21840;44.920;8.616;2023-07-29T12:19:35;100058.44;;;36.38;29.09
35716;BME280;21840;44.920;8.616;2023-07-29T12:22:05;100061.97;;;36.47;28.79
35716;BME280;21840;44.920;8.616;2023-07-29T12:24:32;100068.13;;;36.92;28.02
35716;BME280;21840;44.920;8.616;2023-07-29T12:26:59;100052.50;;;37.02;28.21
35716;BME280;21840;44.920;8.616;2023-07-29T12:29:25;100056.34;;;36.43;28.70
35716;BME280;21840;44.920;8.616;2023-07-29T12:32:01;100053.41;;;36.71;28.62
35716;BME280;21840;44.920;8.616;2023-07-29T12:34:28;100054.50;;;36.61;28.19
35716;BME280;21840;44.920;8.616;2023-07-29T12:36:55;100053.72;;;36.61;28.07
35716;BME280;21840;44.920;8.616;2023-07-29T12:39:30;100057.06;;;37.15;27.82
35716;BME280;21840;44.920;8.616;2023-07-29T12:41:57;100048.22;;;37.18;27.80
35716;BME280;21840;44.920;8.616;2023-07-29T12:44:24;100046.72;;;37.03;27.94
35716;BME280;21840;44.920;8.616;2023-07-29T12:46:50;100045.63;;;37.13;27.50
35716;BME280;21840;44.920;8.616;2023-07-29T12:49:16;100044.50;;;37.05;27.59
35716;BME280;21840;44.920;8.616;2023-07-29T12:51:42;100047.06;;;37.37;27.35
35716;BME280;21840;44.920;8.616;2023-07-29T12:54:08;100043.38;;;37.41;27.34
35716;BME280;21840;44.920;8.616;2023-07-29T12:56:34;100033.72;;;37.35;27.52
35716;BME280;21840;44.920;8.616;2023-07-29T12:59:00;100040.91;;;36.96;28.46
35716;BME280;21840;44.920;8.616;2023-07-29T13:01:26;100039.94;;;36.92;27.93
35716;BME280;21840;44.920;8.616;2023-07-29T13:03:52;100031.94;;;37.22;28.15
35716;BME280;21840;44.920;8.616;2023-07-29T13:06:18;100035.81;;;37.29;27.88
35716;BME280;21840;44.920;8.616;2023-07-29T13:08:44;100037.09;;;37.06;27.99